Latest Weather Observations for North Head

IDN60801

Issued at 6:35 pm EDT Saturday 29 November 2014 (issued every 30 minutes, with the page automatically refreshed every 10 minutes)

About weather observations | Map of weather stations | Latest weather observations for NSW | Other Formats
Station Details ID: 066197 Name: NORTH HEAD Lat: -33.82 Lon: 151.30 Height: 90.0 m
Data from the previous 72 hours. | See also: Recent months for locations in New South Wales
Date/Time
EDT
Temp
°C
App
Temp
°C
Dew
Point
Rel
Hum
%
Delta-T
°C
Wind Press
QNH
hPa
Press
MSL
hPa
Rain
since 9 am
mm
Dir
 
Spd
km/h
Gust
km/h
Spd
kts
Gust
kts
29/06:30pm - - - - - NNE 24 37 13 20 - - -
29/06:00pm - - - - - NNE 20 33 11 18 - - -
29/05:30pm - - - - - NNE 20 35 11 19 - - -
29/05:00pm - - - - - NE 24 37 13 20 - - -
29/04:30pm - - - - - NE 22 33 12 18 - - -
29/04:00pm - - - - - NE 22 35 12 19 - - -
29/03:30pm - - - - - NE 22 32 12 17 - - -
29/03:00pm - - - - - ENE 24 33 13 18 - - -
29/02:30pm - - - - - ENE 20 30 11 16 - - -
29/02:00pm - - - - - ENE 19 28 10 15 - - -
29/01:30pm - - - - - ENE 17 26 9 14 - - -
29/01:00pm - - - - - ENE 17 24 9 13 - - -
29/12:30pm - - - - - ENE 17 24 9 13 - - -
29/12:00pm - - - - - ENE 17 22 9 12 - - -
29/11:30am - - - - - E 15 24 8 13 - - -
29/11:00am - - - - - ENE 17 22 9 12 - - -
29/10:30am - - - - - ENE 13 19 7 10 - - -
29/10:00am - - - - - NNE 9 15 5 8 - - -
29/09:30am - - - - - NNE 11 15 6 8 - - -
29/09:00am - - - - - NNE 13 19 7 10 - - -
29/08:30am - - - - - NNE 11 17 6 9 - - -
29/08:00am - - - - - N 6 11 3 6 - - -
29/07:30am - - - - - WNW 4 7 2 4 - - -
29/07:00am - - - - - NW 4 4 2 2 - - -
29/06:30am - - - - - W 6 6 3 3 - - -
29/06:00am - - - - - W 6 6 3 3 - - -
29/05:30am - - - - - W 6 7 3 4 - - -
29/05:00am - - - - - W 7 9 4 5 - - -
29/04:30am - - - - - NW 4 7 2 4 - - -
29/04:00am - - - - - NE 7 11 4 6 - - -
29/03:30am - - - - - NNE 6 9 3 5 - - -
29/03:00am - - - - - NNE 9 15 5 8 - - -
29/02:30am - - - - - NNE 9 13 5 7 - - -
29/02:00am - - - - - NNE 11 19 6 10 - - -
29/01:30am - - - - - NNE 9 17 5 9 - - -
29/01:00am - - - - - NE 13 20 7 11 - - -
29/12:30am - - - - - NE 15 22 8 12 - - -
29/12:00am - - - - - NE 15 26 8 14 - - -
 
Date/Time
EDT
Temp
°C
App
Temp
°C
Dew
Point
Rel
Hum
%
Delta-T
°C
Wind Press
QNH
hPa
Press
MSL
hPa
Rain
since 9 am
mm
Dir
 
Spd
km/h
Gust
km/h
Spd
kts
Gust
kts
28/11:30pm - - - - - NE 17 24 9 13 - - -
28/11:00pm - - - - - NE 17 24 9 13 - - -
28/10:30pm - - - - - NE 17 24 9 13 - - -
28/10:00pm - - - - - NE 17 24 9 13 - - -
28/09:30pm - - - - - NE 17 28 9 15 - - -
28/09:00pm - - - - - NE 19 26 10 14 - - -
28/08:30pm - - - - - NE 20 30 11 16 - - -
28/08:00pm - - - - - NE 20 30 11 16 - - -
28/07:30pm - - - - - ENE 19 30 10 16 - - -
28/07:00pm - - - - - NE 19 30 10 16 - - -
28/06:30pm - - - - - ENE 15 24 8 13 - - -
28/06:00pm - - - - - ENE 17 28 9 15 - - -
28/05:30pm - - - - - ENE 17 26 9 14 - - -
28/05:00pm - - - - - ENE 15 24 8 13 - - -
28/04:30pm - - - - - ENE 15 24 8 13 - - -
28/04:00pm - - - - - E 15 24 8 13 - - -
28/03:30pm - - - - - E 17 26 9 14 - - -
28/03:00pm - - - - - E 15 20 8 11 - - -
28/02:30pm - - - - - E 13 20 7 11 - - -
28/02:00pm - - - - - E 13 20 7 11 - - -
28/01:30pm - - - - - E 15 22 8 12 - - -
28/01:00pm - - - - - E 15 20 8 11 - - -
28/12:30pm - - - - - E 15 22 8 12 - - -
28/12:00pm - - - - - ESE 17 24 9 13 - - -
28/11:30am - - - - - E 15 22 8 12 - - -
28/11:00am - - - - - ESE 15 19 8 10 - - -
28/10:30am - - - - - E 15 22 8 12 - - -
28/10:00am - - - - - ESE 13 17 7 9 - - -
28/09:30am - - - - - ESE 13 19 7 10 - - -
28/09:00am - - - - - ESE 9 15 5 8 - - -
28/08:30am - - - - - ESE 9 15 5 8 - - -
28/08:00am - - - - - SE 9 17 5 9 - - -
28/07:30am - - - - - SE 9 15 5 8 - - -
28/07:00am - - - - - SE 9 15 5 8 - - -
28/06:30am - - - - - SE 9 17 5 9 - - -
28/06:00am - - - - - SSE 11 15 6 8 - - -
28/05:30am - - - - - SSE 13 20 7 11 - - -
28/05:00am - - - - - SSE 17 22 9 12 - - -
28/04:30am - - - - - SSE 13 19 7 10 - - -
28/04:00am - - - - - SSE 15 20 8 11 - - -
28/03:30am - - - - - SE 15 20 8 11 - - -
28/03:00am - - - - - SSE 11 19 6 10 - - -
28/02:30am - - - - - SSE 13 22 7 12 - - -
28/02:00am - - - - - SE 11 22 6 12 - - -
28/01:30am - - - - - SE 17 30 9 16 - - -
28/01:00am - - - - - SE 15 24 8 13 - - -
28/12:30am - - - - - SE 15 24 8 13 - - -
28/12:00am - - - - - SE 15 20 8 11 - - -
 
Date/Time
EDT
Temp
°C
App
Temp
°C
Dew
Point
Rel
Hum
%
Delta-T
°C
Wind Press
QNH
hPa
Press
MSL
hPa
Rain
since 9 am
mm
Dir
 
Spd
km/h
Gust
km/h
Spd
kts
Gust
kts
27/11:30pm - - - - - ESE 15 22 8 12 - - -
27/11:00pm - - - - - SE 13 20 7 11 - - -
27/10:30pm - - - - - ESE 13 20 7 11 - - -
27/10:00pm - - - - - SE 15 22 8 12 - - -
27/09:30pm - - - - - SE 13 24 7 13 - - -
27/09:00pm - - - - - SE 15 24 8 13 - - -
27/08:30pm - - - - - ESE 17 28 9 15 - - -
27/08:00pm - - - - - SE 15 24 8 13 - - -
27/07:30pm - - - - - SSE 17 32 9 17 - - -
27/07:00pm - - - - - SSE 17 30 9 16 - - -
27/06:30pm - - - - - SSE 20 26 11 14 - - -
27/06:00pm - - - - - SSE 20 28 11 15 - - -
27/05:30pm - - - - - SSE 15 24 8 13 - - -
27/05:00pm - - - - - SSE 15 22 8 12 - - -
27/04:30pm - - - - - SSE 19 24 10 13 - - -
27/04:00pm - - - - - SE 15 26 8 14 - - -
27/03:30pm - - - - - SSE 15 24 8 13 - - -
27/03:00pm - - - - - SE 15 26 8 14 - - -
27/02:30pm - - - - - SSE 22 32 12 17 - - -
27/02:00pm - - - - - SSE 20 32 11 17 - - -
27/01:30pm - - - - - SSE 24 33 13 18 - - -
27/01:00pm - - - - - SSE 24 35 13 19 - - -
27/12:30pm - - - - - SSE 24 33 13 18 - - -
27/12:00pm - - - - - SSE 26 35 14 19 - - -
27/11:30am - - - - - SSE 26 35 14 19 - - -
27/11:00am - - - - - SSE 24 35 13 19 - - -
27/10:30am - - - - - SSE 26 37 14 20 - - -
27/10:00am - - - - - SSE 24 37 13 20 - - -
27/09:30am - - - - - SSE 30 39 16 21 - - -
27/09:00am - - - - - SSE 26 35 14 19 - - -
27/08:30am - - - - - SSE 28 41 15 22 - - -
27/08:00am - - - - - SSE 24 41 13 22 - - -
27/07:30am - - - - - SE 28 41 15 22 - - -
27/07:00am - - - - - SE 24 43 13 23 - - -
27/06:30am - - - - - SE 26 39 14 21 - - -
27/06:00am - - - - - SE 28 43 15 23 - - -
27/05:30am - - - - - SE 28 44 15 24 - - -
27/05:00am - - - - - SE 24 41 13 22 - - -
27/04:30am - - - - - SE 20 37 11 20 - - -
27/04:00am - - - - - SE 9 15 5 8 - - -
27/03:30am - - - - - SE 13 19 7 10 - - -
27/03:00am - - - - - ESE 9 13 5 7 - - -
27/02:30am - - - - - ESE 11 17 6 9 - - -
27/02:00am - - - - - ESE 9 13 5 7 - - -
27/01:30am - - - - - ESE 11 17 6 9 - - -
27/01:00am - - - - - ESE 13 20 7 11 - - -
27/12:30am - - - - - ESE 13 17 7 9 - - -
27/12:00am - - - - - E 13 20 7 11 - - -
 
Date/Time
EDT
Temp
°C
App
Temp
°C
Dew
Point
Rel
Hum
%
Delta-T
°C
Wind Press
QNH
hPa
Press
MSL
hPa
Rain
since 9 am
mm
Dir
 
Spd
km/h
Gust
km/h
Spd
kts
Gust
kts
26/11:30pm - - - - - E 13 19 7 10 - - -
26/11:00pm - - - - - E 13 20 7 11 - - -
26/10:30pm - - - - - E 11 17 6 9 - - -
26/10:00pm - - - - - E 17 24 9 13 - - -
26/09:30pm - - - - - E 15 24 8 13 - - -
26/09:00pm - - - - - E 15 22 8 12 - - -
26/08:30pm - - - - - ENE 13 20 7 11 - - -
26/08:00pm - - - - - ENE 17 26 9 14 - - -
26/07:30pm - - - - - ENE 19 26 10 14 - - -
26/07:00pm - - - - - ENE 19 28 10 15 - - -

Other Formats:

Comma delimited format used in spreadsheet applications
http://www.bom.gov.au/fwo/IDN60801/IDN60801.95768.axf

JavaScript Object Notation format (JSON) in row-major order
http://www.bom.gov.au/fwo/IDN60801/IDN60801.95768.json